createdAt,value
2022-08-07T00:00:57.130Z,12.46
2022-08-07T00:03:29.492Z,12.42
2022-08-07T00:06:07.391Z,12.42
2022-08-07T00:08:38.698Z,12.41
2022-08-07T00:11:19.996Z,12.39
2022-08-07T00:14:00.140Z,12.35
2022-08-07T00:16:32.026Z,12.35
2022-08-07T00:19:05.624Z,12.32
2022-08-07T00:21:57.202Z,12.31
2022-08-07T00:24:25.870Z,12.36
2022-08-07T00:27:06.559Z,12.35
2022-08-07T00:29:37.660Z,12.32
2022-08-07T00:32:08.597Z,12.28
2022-08-07T00:34:39.099Z,12.28
2022-08-07T00:37:10.657Z,12.26
2022-08-07T00:39:44.856Z,12.24
2022-08-07T00:42:15.340Z,12.25
2022-08-07T00:44:46.493Z,12.25
2022-08-07T00:48:07.603Z,12.22
2022-08-07T00:50:21.528Z,12.22
2022-08-07T00:53:00.075Z,12.24
2022-08-07T00:56:00.593Z,12.28
2022-08-07T00:58:24.168Z,12.29
2022-08-07T01:00:54.306Z,12.28
2022-08-07T01:03:54.676Z,12.24
2022-08-07T01:06:15.929Z,12.26
2022-08-07T01:08:53.002Z,12.29
2022-08-07T01:12:23.438Z,12.25
2022-08-07T01:14:15.520Z,12.24
2022-08-07T01:16:48.069Z,12.20
2022-08-07T01:19:23.072Z,12.24
2022-08-07T01:21:57.088Z,12.21
2022-08-07T01:24:31.106Z,12.20
2022-08-07T01:27:03.249Z,12.18
2022-08-07T01:29:35.463Z,12.17
2022-08-07T01:32:12.503Z,12.10
2022-08-07T01:34:49.286Z,12.08
2022-08-07T01:37:20.112Z,12.02
2022-08-07T01:39:53.359Z,12.02
2022-08-07T01:42:39.772Z,11.97
2022-08-07T01:45:23.029Z,11.99
2022-08-07T01:48:17.857Z,11.99
2022-08-07T01:51:24.369Z,11.95
2022-08-07T01:54:08.894Z,11.95
2022-08-07T01:57:04.202Z,11.98
2022-08-07T01:59:48.294Z,11.99
2022-08-07T02:03:05.606Z,11.88
2022-08-07T02:06:00.854Z,11.90
2022-08-07T02:08:42.476Z,11.85
2022-08-07T02:11:31.059Z,11.80
2022-08-07T02:14:08.620Z,11.80
2022-08-07T02:16:41.059Z,11.80
2022-08-07T02:20:04.717Z,11.78
2022-08-07T02:22:07.832Z,11.75
2022-08-07T02:24:38.980Z,11.74
2022-08-07T02:27:21.049Z,11.77
2022-08-07T02:29:55.753Z,11.73
2022-08-07T02:32:34.568Z,11.70
2022-08-07T02:35:09.341Z,11.67
2022-08-07T02:37:44.210Z,11.63
2022-08-07T02:40:30.695Z,11.60
2022-08-07T02:43:07.728Z,11.54
2022-08-07T02:46:00.895Z,11.57
2022-08-07T02:48:35.178Z,11.52
2022-08-07T02:51:29.111Z,11.54
2022-08-07T02:54:06.611Z,11.54
2022-08-07T02:56:40.123Z,11.59
2022-08-07T02:59:13.125Z,11.59
2022-08-07T03:01:47.078Z,11.62
2022-08-07T03:04:20.501Z,11.63
2022-08-07T03:06:52.445Z,11.63
2022-08-07T03:09:43.746Z,11.64
2022-08-07T03:12:22.537Z,11.77
2022-08-07T03:15:09.335Z,11.78
2022-08-07T03:17:53.932Z,11.75
2022-08-07T03:20:28.481Z,11.78
2022-08-07T03:23:00.100Z,11.83
2022-08-07T03:25:40.414Z,11.87
2022-08-07T03:28:36.902Z,11.87
2022-08-07T03:31:26.238Z,11.88
2022-08-07T03:34:18.798Z,11.88
2022-08-07T03:37:01.249Z,11.87
2022-08-07T03:40:07.375Z,11.81
2022-08-07T03:42:40.268Z,11.81
2022-08-07T03:45:12.341Z,11.87
2022-08-07T03:48:09.981Z,11.85
2022-08-07T03:50:43.224Z,11.87
2022-08-07T03:54:00.692Z,11.90
2022-08-07T03:56:33.245Z,11.88
2022-08-07T03:59:13.007Z,11.88
2022-08-07T04:01:48.514Z,11.87
2022-08-07T04:04:23.924Z,11.84
2022-08-07T04:07:00.148Z,11.85
2022-08-07T04:09:45.419Z,11.84
2022-08-07T04:12:28.900Z,11.84
2022-08-07T04:15:00.967Z,11.84
2022-08-07T04:18:31.812Z,11.87
2022-08-07T04:20:25.486Z,11.91
2022-08-07T04:23:01.294Z,11.95
2022-08-07T04:25:41.203Z,11.90
2022-08-07T04:28:14.629Z,11.88
2022-08-07T04:30:57.008Z,11.91
2022-08-07T04:33:32.650Z,11.95
2022-08-07T04:36:07.061Z,11.93
2022-08-07T04:38:39.502Z,11.94
2022-08-07T04:41:18.161Z,11.95
2022-08-07T04:44:12.272Z,11.98
2022-08-07T04:47:23.622Z,11.97
2022-08-07T04:50:23.842Z,11.95
2022-08-07T04:53:39.959Z,11.90
2022-08-07T04:58:15.139Z,11.88
2022-08-07T05:00:11.222Z,11.88
2022-08-07T05:02:46.416Z,11.87
2022-08-07T05:05:53.648Z,11.90
2022-08-07T05:08:59.672Z,11.91
2022-08-07T05:11:56.892Z,11.93
2022-08-07T05:14:54.448Z,11.93
2022-08-07T05:17:52.777Z,11.88
2022-08-07T05:20:28.201Z,11.88
2022-08-07T05:23:15.317Z,11.84
2022-08-07T05:26:11.125Z,11.83
2022-08-07T05:28:41.298Z,11.83
2022-08-07T05:31:25.271Z,11.80
2022-08-07T05:34:15.664Z,11.77
2022-08-07T05:36:53.088Z,11.74
2022-08-07T05:40:05.361Z,11.67
2022-08-07T05:42:33.252Z,11.67
2022-08-07T05:45:26.075Z,11.67
2022-08-07T05:48:01.370Z,11.71
2022-08-07T05:50:46.416Z,11.66
2022-08-07T05:54:13.953Z,11.64
2022-08-07T05:56:17.087Z,11.54
2022-08-07T05:58:53.072Z,11.46
2022-08-07T06:01:34.769Z,11.37
2022-08-07T06:04:10.662Z,11.30
2022-08-07T06:06:46.079Z,11.26
2022-08-07T06:09:20.091Z,11.22
2022-08-07T06:11:52.293Z,11.11
2022-08-07T06:14:28.651Z,11.06
2022-08-07T06:17:07.223Z,11.05
2022-08-07T06:19:52.281Z,10.95
2022-08-07T06:22:40.043Z,10.89
2022-08-07T06:25:22.570Z,10.85
2022-08-07T06:28:01.103Z,10.78
2022-08-07T06:30:41.400Z,10.78
2022-08-07T06:33:20.397Z,10.79
2022-08-07T06:36:12.081Z,10.77
2022-08-07T06:38:59.018Z,10.81
2022-08-07T06:42:02.235Z,10.84
2022-08-07T06:45:15.498Z,10.85
2022-08-07T06:47:58.662Z,10.85
2022-08-07T06:50:38.030Z,10.84
2022-08-07T06:54:11.678Z,10.79
2022-08-07T06:56:15.028Z,10.74
2022-08-07T07:00:13.310Z,10.64
2022-08-07T07:01:50.728Z,10.54
2022-08-07T07:04:27.973Z,10.46
2022-08-07T07:07:10.346Z,10.44
2022-08-07T07:09:50.990Z,10.34
2022-08-07T07:12:48.505Z,10.34
2022-08-07T07:15:32.437Z,10.23
2022-08-07T07:18:47.412Z,10.24
2022-08-07T07:21:27.326Z,10.16
2022-08-07T07:24:18.037Z,10.14
2022-08-07T07:26:52.303Z,10.10
2022-08-07T07:29:39.391Z,10.06
2022-08-07T07:32:21.925Z,9.98
2022-08-07T07:34:57.227Z,9.95
2022-08-07T07:37:49.513Z,10.02
2022-08-07T07:40:26.116Z,10.08
2022-08-07T07:42:58.389Z,10.10
2022-08-07T07:46:37.827Z,10.08
2022-08-07T07:48:35.967Z,10.09
2022-08-07T07:51:08.450Z,10.14
2022-08-07T07:53:52.625Z,10.17
2022-08-07T07:56:30.382Z,10.23
2022-08-07T07:59:05.930Z,10.27
2022-08-07T08:02:02.947Z,10.33
2022-08-07T08:04:32.298Z,10.46
2022-08-07T08:07:07.819Z,10.50
2022-08-07T08:09:52.585Z,10.54
2022-08-07T08:12:52.202Z,10.61
2022-08-07T08:15:23.304Z,10.63
2022-08-07T08:17:57.687Z,10.63
2022-08-07T08:20:32.846Z,10.67
2022-08-07T08:23:28.038Z,10.71
2022-08-07T08:26:19.079Z,10.79
2022-08-07T08:28:54.450Z,10.82
2022-08-07T08:32:17.326Z,10.85
2022-08-07T08:34:35.549Z,10.94
2022-08-07T08:37:09.866Z,10.98
2022-08-07T08:39:59.229Z,10.98
2022-08-07T08:42:58.792Z,11.02
2022-08-07T08:45:41.958Z,11.04
2022-08-07T08:48:38.852Z,11.08
2022-08-07T08:51:49.314Z,11.08
2022-08-07T08:54:49.478Z,11.06
2022-08-07T08:57:41.838Z,11.06
2022-08-07T09:00:13.796Z,11.09
2022-08-07T09:03:01.790Z,11.09
2022-08-07T09:06:22.401Z,11.09
2022-08-07T09:09:20.589Z,11.14
2022-08-07T09:12:20.084Z,11.15
2022-08-07T09:16:23.533Z,11.19
2022-08-07T09:18:31.469Z,11.15
2022-08-07T09:21:58.266Z,11.06
2022-08-07T09:24:30.716Z,11.08
2022-08-07T09:27:38.341Z,11.15
2022-08-07T09:30:28.490Z,11.20
2022-08-07T09:33:41.076Z,11.16
2022-08-07T09:36:17.190Z,11.22
2022-08-07T09:38:53.714Z,11.23
2022-08-07T09:41:58.474Z,11.25
2022-08-07T09:47:26.354Z,11.32
2022-08-07T09:48:25.124Z,11.30
2022-08-07T09:52:09.194Z,11.36
2022-08-07T09:54:08.229Z,11.35
2022-08-07T09:57:02.338Z,11.37
2022-08-07T10:00:14.753Z,11.39
2022-08-07T10:04:04.769Z,11.40
2022-08-07T10:06:11.921Z,11.43
2022-08-07T10:09:06.426Z,11.47
2022-08-07T10:12:04.669Z,11.47
2022-08-07T10:14:54.966Z,11.44
2022-08-07T10:17:31.018Z,11.47
2022-08-07T10:20:30.491Z,11.53
2022-08-07T10:24:05.081Z,11.54
2022-08-07T10:26:35.379Z,11.60
2022-08-07T10:29:26.471Z,11.62
2022-08-07T10:32:37.074Z,11.66
2022-08-07T10:35:53.576Z,11.67
2022-08-07T10:38:48.385Z,11.73
2022-08-07T10:41:51.924Z,11.74
2022-08-07T10:44:38.680Z,11.80
2022-08-07T10:47:26.601Z,11.85
2022-08-07T10:50:26.620Z,11.87
2022-08-07T10:53:28.158Z,11.87
2022-08-07T10:56:45.416Z,11.85
2022-08-07T10:59:41.302Z,11.94
2022-08-07T11:02:35.252Z,12.01
2022-08-07T11:05:51.026Z,12.14
2022-08-07T11:08:45.448Z,12.15
2022-08-07T11:11:37.784Z,12.21
2022-08-07T11:15:00.226Z,12.38
2022-08-07T11:17:54.018Z,12.39
2022-08-07T11:20:24.562Z,12.45
2022-08-07T11:23:09.154Z,12.48
2022-08-07T11:25:50.049Z,12.55
2022-08-07T11:28:38.085Z,12.60
2022-08-07T11:31:35.669Z,12.80
2022-08-07T11:34:30.069Z,12.72
2022-08-07T11:37:15.230Z,12.70
2022-08-07T11:40:10.440Z,12.72
2022-08-07T11:43:15.759Z,12.75
2022-08-07T11:46:10.249Z,12.92
2022-08-07T11:49:50.090Z,13.14
2022-08-07T11:52:06.316Z,13.44
2022-08-07T11:54:59.415Z,13.68
2022-08-07T11:57:58.083Z,13.80
2022-08-07T12:00:54.867Z,13.85
2022-08-07T12:03:54.738Z,14.09
2022-08-07T12:06:37.430Z,14.37
2022-08-07T12:09:46.126Z,14.63
2022-08-07T12:12:27.314Z,14.78
2022-08-07T12:15:08.239Z,14.87
2022-08-07T12:18:29.784Z,15.06
2022-08-07T12:22:36.350Z,15.32
2022-08-07T12:26:02.953Z,15.05
2022-08-07T12:28:31.028Z,15.27
2022-08-07T12:31:09.224Z,15.51
2022-08-07T12:33:56.700Z,15.54
2022-08-07T12:36:33.702Z,16.06
2022-08-07T12:39:09.372Z,17.51
2022-08-07T12:42:01.095Z,18.57
2022-08-07T12:44:36.742Z,19.53
2022-08-07T12:47:39.661Z,20.52
2022-08-07T12:50:39.104Z,19.99
2022-08-07T12:53:21.917Z,19.71
2022-08-07T12:56:11.146Z,18.13
2022-08-07T12:58:56.955Z,18.43
2022-08-07T13:01:32.430Z,17.82
2022-08-07T13:04:31.686Z,17.99
2022-08-07T13:08:11.571Z,18.50
2022-08-07T13:10:29.161Z,20.07
2022-08-07T13:13:50.068Z,21.45
2022-08-07T13:16:30.999Z,19.87
2022-08-07T13:19:34.870Z,19.88
2022-08-07T13:22:27.773Z,20.57
2022-08-07T13:25:24.187Z,21.63
2022-08-07T13:28:25.656Z,19.82
2022-08-07T13:31:32.197Z,19.81
2022-08-07T13:34:53.153Z,18.33
2022-08-07T13:37:55.462Z,18.69
2022-08-07T13:40:44.417Z,18.73
2022-08-07T13:43:17.100Z,18.44
2022-08-07T13:46:12.526Z,17.72
2022-08-07T13:48:58.340Z,17.65
2022-08-07T13:52:04.923Z,17.69
2022-08-07T13:54:29.338Z,17.82
2022-08-07T13:57:10.477Z,17.82
2022-08-07T13:59:55.071Z,17.89
2022-08-07T14:02:49.429Z,17.94
2022-08-07T14:05:37.262Z,18.24
2022-08-07T14:08:10.459Z,18.57
2022-08-07T14:10:44.255Z,18.54
2022-08-07T14:13:33.776Z,19.47
2022-08-07T14:16:15.380Z,20.40
2022-08-07T14:18:57.187Z,21.25
2022-08-07T14:22:00.921Z,22.02
2022-08-07T14:24:41.453Z,22.21
2022-08-07T14:28:09.295Z,22.20
2022-08-07T14:30:13.939Z,20.57
2022-08-07T14:32:49.588Z,19.67
2022-08-07T14:35:43.191Z,19.85
2022-08-07T14:38:26.646Z,21.12
2022-08-07T14:41:14.634Z,21.99
2022-08-07T14:43:59.293Z,22.68
2022-08-07T14:46:56.572Z,22.71
2022-08-07T14:49:58.362Z,22.06
2022-08-07T14:52:29.512Z,21.97
2022-08-07T14:55:02.673Z,22.75
2022-08-07T14:57:58.003Z,23.02
2022-08-07T15:00:32.056Z,23.77
2022-08-07T15:03:18.641Z,23.85
2022-08-07T15:05:55.214Z,23.80
2022-08-07T15:17:55.571Z,20.79
2022-08-07T15:20:33.320Z,19.98
2022-08-07T15:23:20.642Z,19.87
2022-08-07T15:25:57.768Z,19.60
2022-08-07T15:28:37.785Z,19.64
2022-08-07T15:31:57.637Z,19.92
2022-08-07T15:34:14.767Z,19.99
2022-08-07T15:37:03.683Z,20.15
2022-08-07T15:39:57.312Z,19.98
2022-08-07T15:42:52.173Z,19.99
2022-08-07T15:48:29.964Z,20.25
2022-08-07T15:51:12.121Z,19.95
2022-08-07T15:53:57.422Z,19.74
2022-08-07T15:56:40.594Z,19.39
2022-08-07T15:59:17.296Z,19.39
2022-08-07T16:02:02.038Z,19.54
2022-08-07T16:04:37.249Z,19.85
2022-08-07T16:08:29.055Z,19.99
2022-08-07T16:10:21.035Z,20.09
2022-08-07T16:13:17.575Z,20.12
2022-08-07T16:16:48.395Z,20.15
2022-08-07T16:19:59.461Z,20.01
2022-08-07T16:23:05.430Z,19.97
2022-08-07T16:26:01.693Z,19.67
2022-08-07T16:30:05.973Z,19.53
2022-08-07T16:32:35.097Z,19.67
2022-08-07T16:35:51.553Z,19.71
2022-08-07T16:39:01.487Z,19.84
2022-08-07T16:42:16.814Z,20.11
2022-08-07T16:45:15.095Z,20.69
2022-08-07T16:48:58.512Z,20.55
2022-08-07T16:51:54.573Z,19.99
2022-08-07T16:54:54.978Z,19.66
2022-08-07T16:58:01.929Z,19.68
2022-08-07T17:01:15.581Z,19.43
2022-08-07T17:04:24.780Z,19.12
2022-08-07T17:07:28.237Z,19.13
2022-08-07T17:10:54.844Z,18.99
2022-08-07T17:14:18.502Z,19.12
2022-08-07T17:17:03.851Z,19.10
2022-08-07T17:20:03.197Z,19.19
2022-08-07T17:22:57.811Z,19.05
2022-08-07T17:25:47.980Z,18.75
2022-08-07T17:28:38.524Z,18.64
2022-08-07T17:32:03.087Z,18.54
2022-08-07T17:35:08.878Z,18.48
2022-08-07T17:38:11.378Z,18.48
2022-08-07T17:40:50.364Z,18.62
2022-08-07T17:44:01.868Z,18.55
2022-08-07T17:46:36.057Z,18.40
2022-08-07T17:49:22.929Z,18.37
2022-08-07T17:52:21.214Z,18.29
2022-08-07T17:55:13.680Z,18.24
2022-08-07T17:57:58.838Z,18.20
2022-08-07T18:00:48.727Z,18.07
2022-08-07T18:04:07.436Z,18.00
2022-08-07T18:07:19.628Z,17.96
2022-08-07T18:10:04.631Z,18.02
2022-08-07T18:12:35.837Z,17.90
2022-08-07T18:15:32.401Z,17.79
2022-08-07T18:18:46.011Z,17.72
2022-08-07T18:21:40.156Z,17.59
2022-08-07T18:24:07.342Z,17.52
2022-08-07T18:26:52.129Z,17.52
2022-08-07T18:30:30.841Z,17.46
2022-08-07T18:33:16.793Z,17.41
2022-08-07T18:36:32.918Z,17.38
2022-08-07T18:40:06.407Z,17.38
2022-08-07T18:42:27.889Z,17.30
2022-08-07T18:45:43.048Z,17.20
2022-08-07T18:50:05.122Z,17.15
2022-08-07T18:52:35.097Z,17.10
2022-08-07T18:54:39.897Z,17.04
2022-08-07T18:57:40.496Z,16.94
2022-08-07T19:00:32.403Z,16.88
2022-08-07T19:03:16.453Z,16.76
2022-08-07T19:06:03.891Z,16.72
2022-08-07T19:08:46.269Z,16.69
2022-08-07T19:11:36.394Z,16.62
2022-08-07T19:14:20.314Z,16.62
2022-08-07T19:17:11.643Z,16.56
2022-08-07T19:20:00.023Z,16.51
2022-08-07T19:22:44.838Z,16.42
2022-08-07T19:26:24.048Z,16.33
2022-08-07T19:28:57.423Z,16.24
2022-08-07T19:31:41.708Z,16.16
2022-08-07T19:34:04.926Z,16.11
2022-08-07T19:36:51.736Z,16.09
2022-08-07T19:39:55.955Z,16.02
2022-08-07T19:42:24.670Z,15.97
2022-08-07T19:45:00.569Z,15.94
2022-08-07T19:47:42.039Z,15.87
2022-08-07T19:50:41.114Z,15.85
2022-08-07T19:54:34.784Z,15.78
2022-08-07T19:56:03.259Z,15.73
2022-08-07T19:58:44.876Z,15.73
2022-08-07T20:01:24.351Z,15.68
2022-08-07T20:04:31.529Z,15.68
2022-08-07T20:07:11.774Z,15.63
2022-08-07T20:10:35.218Z,15.58
2022-08-07T20:12:46.719Z,15.51
2022-08-07T20:15:22.354Z,15.51
2022-08-07T20:18:01.678Z,15.49
2022-08-07T20:20:36.183Z,15.44
2022-08-07T20:23:33.045Z,15.40
2022-08-07T20:26:09.933Z,15.36
2022-08-07T20:28:43.184Z,15.36
2022-08-07T20:31:21.269Z,15.32
2022-08-07T20:33:56.616Z,15.29
2022-08-07T20:36:31.524Z,15.23
2022-08-07T20:39:11.643Z,15.20
2022-08-07T20:41:52.068Z,15.13
2022-08-07T20:44:34.227Z,15.08
2022-08-07T20:47:09.654Z,15.06
2022-08-07T20:49:57.750Z,15.06
2022-08-07T20:52:51.213Z,15.02
2022-08-07T20:55:25.478Z,15.00
2022-08-07T20:58:03.621Z,15.02
2022-08-07T21:00:45.459Z,15.02
2022-08-07T21:03:19.244Z,15.02
2022-08-07T21:06:21.738Z,15.00
2022-08-07T21:09:14.409Z,14.99
2022-08-07T21:11:51.633Z,14.95
2022-08-07T21:14:48.452Z,14.93
2022-08-07T21:18:02.602Z,14.89
2022-08-07T21:20:29.497Z,14.87
2022-08-07T21:23:31.430Z,14.82
2022-08-07T21:26:30.855Z,14.85
2022-08-07T21:29:39.032Z,14.87
2022-08-07T21:32:48.380Z,14.88
2022-08-07T21:35:34.799Z,14.87
2022-08-07T21:38:44.136Z,14.87
2022-08-07T21:41:52.205Z,14.85
2022-08-07T21:44:52.761Z,14.84
2022-08-07T21:47:35.806Z,14.87
2022-08-07T21:50:27.591Z,14.84
2022-08-07T21:53:17.509Z,14.84
2022-08-07T21:56:36.483Z,14.79
2022-08-07T21:59:09.565Z,14.77
2022-08-07T22:02:11.411Z,14.71
2022-08-07T22:04:54.000Z,14.64
2022-08-07T22:07:58.207Z,14.58
2022-08-07T22:10:29.277Z,14.56
2022-08-07T22:13:09.945Z,14.54
2022-08-07T22:16:39.096Z,14.57
2022-08-07T22:18:46.763Z,14.54
2022-08-07T22:22:02.835Z,14.52
2022-08-07T22:24:32.960Z,14.56
2022-08-07T22:27:19.013Z,14.56
2022-08-07T22:30:12.611Z,14.54
2022-08-07T22:33:02.647Z,14.54
2022-08-07T22:35:43.356Z,14.52
2022-08-07T22:38:25.787Z,14.51
2022-08-07T22:40:59.794Z,14.50
2022-08-07T22:43:47.452Z,14.48
2022-08-07T22:47:02.875Z,14.54
2022-08-07T22:49:54.497Z,14.54
2022-08-07T22:52:45.924Z,14.56
2022-08-07T22:55:49.158Z,14.54
2022-08-07T22:58:30.819Z,14.56
2022-08-07T23:01:49.532Z,14.56
2022-08-07T23:04:57.720Z,14.56
2022-08-07T23:07:55.202Z,14.57
2022-08-07T23:11:06.277Z,14.58
2022-08-07T23:14:15.201Z,14.60
2022-08-07T23:17:01.483Z,14.60
2022-08-07T23:20:11.585Z,14.63
2022-08-07T23:24:06.858Z,14.60
2022-08-07T23:26:25.175Z,14.56
2022-08-07T23:30:36.145Z,14.57
2022-08-07T23:34:23.187Z,14.57
2022-08-07T23:35:57.060Z,14.56
2022-08-07T23:39:00.923Z,14.61
2022-08-07T23:42:21.417Z,14.58
2022-08-07T23:45:32.778Z,14.60
2022-08-07T23:48:19.467Z,14.60
2022-08-07T23:50:57.816Z,14.57
2022-08-07T23:53:51.800Z,14.54
2022-08-07T23:56:26.590Z,14.50
